Winnipeg James Armstrong Richardson International Airport
CYWG : now visible

Airfield :











YOU CAN JOIN US ON...

 
LOGIN :

Register | Disclaimer

   EN    FR    IT 

 









Legend :    VFR   Marginal VFR   IFR   Intensive IFR   Very Intensive IFR
Visi :
Ceiling :
>= 8 km
>= 3000ft
5 to 8 km
1000 to 3000 ft
1500m to 5 km
500 to 1000 ft
800 to 1500m
200 to 500 ft
< 800m
< 200 ft
Symbols :   Thunderstorms  Fog  Heavy snow  Heavy precipitations  Wind > 20 kt






- Airport Elevation : 783 ft
- IATA code : YWG


CYWG - Winnipeg James Armstrong Richardson International

CURRENT METAR :
  • 171200Z 24004KT 15SM -SN FEW012 OVC048 M10/M13 A2991 RMK SF1SC7 SLP150

EXPIRED METARs :
  • 171100Z 22004KT 15SM -SN OVC042 M10/M13 A2989 RMK SC8 SLP145
  • 171000Z 19005KT 15SM -SN OVC028 M10/M13 A2989 RMK SC8 SLP143
  • 170900Z 18008KT 15SM BKN016 OVC030 M10/M14 A2989 RMK SC6SC2 SLP142

TAF TAF CYWG
Valid from the 17 at 12:00 until the 18 at 12:00 UTC


171138Z 1712/1812 18008KT P6SM OVC025
TEMPO 1712/1716 4SM -SN OVC012
PROB30 1712/1716 2SM -SN OVC006
FM171600 32012KT P6SM OVC030
TEMPO 1716/1724 2SM -SN OVC020
FM180000 32010KT P6SM BKN025
TEMPO 1800/1812 BKN012 RMK NXT FCST BY 171800Z



MET'MAP, your aeronautical weather chart ! - Copyright ORBIFLY December 2007 - Disclaimer

ORBIFLY MET'MAP TEAM :

Programming & Development : Alexandra Zaïnal
Concept & original design : Baudouin d'Aumeries
Assistance for programming : Marc-Olivier Méhu
Technical & hardware support : Manuel Goepfert

Contact : metmap@orbifly.com




SOURCES & CREDITS :

   NOAA       Earth
Advisory